sensor_id;sensor_type;location;lat;lon;timestamp;temperature;humidity
32895;DHT22;19251;49.484;8.260;2022-10-16T00:02:34;19.80;35.00
32895;DHT22;19251;49.484;8.260;2022-10-16T00:07:37;19.80;35.00
32895;DHT22;19251;49.484;8.260;2022-10-16T00:12:39;19.80;35.00
32895;DHT22;19251;49.484;8.260;2022-10-16T00:17:41;19.70;34.90
32895;DHT22;19251;49.484;8.260;2022-10-16T00:27:45;19.60;34.80
32895;DHT22;19251;49.484;8.260;2022-10-16T00:32:47;19.60;34.80
32895;DHT22;19251;49.484;8.260;2022-10-16T00:37:50;19.60;35.00
32895;DHT22;19251;49.484;8.260;2022-10-16T00:42:52;19.60;35.20
32895;DHT22;19251;49.484;8.260;2022-10-16T00:47:55;19.50;35.20
32895;DHT22;19251;49.484;8.260;2022-10-16T00:52:58;19.80;35.60
32895;DHT22;19251;49.484;8.260;2022-10-16T00:58:00;19.60;35.40
32895;DHT22;19251;49.484;8.260;2022-10-16T01:03:21;19.60;35.50
32895;DHT22;19251;49.484;8.260;2022-10-16T01:08:43;19.60;35.70
32895;DHT22;19251;49.484;8.260;2022-10-16T01:13:52;19.60;35.50
32895;DHT22;19251;49.484;8.260;2022-10-16T01:19:01;19.60;35.60
32895;DHT22;19251;49.484;8.260;2022-10-16T01:24:25;19.60;35.40
32895;DHT22;19251;49.484;8.260;2022-10-16T01:29:44;19.50;35.50
32895;DHT22;19251;49.484;8.260;2022-10-16T01:35:09;19.50;35.30
32895;DHT22;19251;49.484;8.260;2022-10-16T01:45:19;19.40;35.20
32895;DHT22;19251;49.484;8.260;2022-10-16T01:50:22;19.40;35.30
32895;DHT22;19251;49.484;8.260;2022-10-16T01:55:32;19.40;35.30
32895;DHT22;19251;49.484;8.260;2022-10-16T02:00:38;19.30;35.30
32895;DHT22;19251;49.484;8.260;2022-10-16T02:05:55;19.30;35.20
32895;DHT22;19251;49.484;8.260;2022-10-16T02:11:00;19.30;35.40
32895;DHT22;19251;49.484;8.260;2022-10-16T02:16:03;19.30;35.40
32895;DHT22;19251;49.484;8.260;2022-10-16T02:21:23;19.30;35.30
32895;DHT22;19251;49.484;8.260;2022-10-16T02:31:46;19.30;35.60
32895;DHT22;19251;49.484;8.260;2022-10-16T02:36:52;19.30;35.50
32895;DHT22;19251;49.484;8.260;2022-10-16T02:41:55;19.30;35.70
32895;DHT22;19251;49.484;8.260;2022-10-16T02:46:57;19.30;35.60
32895;DHT22;19251;49.484;8.260;2022-10-16T02:51:59;19.30;35.60
32895;DHT22;19251;49.484;8.260;2022-10-16T02:57:01;19.30;36.30
32895;DHT22;19251;49.484;8.260;2022-10-16T03:02:03;19.30;35.60
32895;DHT22;19251;49.484;8.260;2022-10-16T03:07:05;19.20;35.50
32895;DHT22;19251;49.484;8.260;2022-10-16T03:12:08;19.10;35.50
32895;DHT22;19251;49.484;8.260;2022-10-16T03:17:10;19.30;36.40
32895;DHT22;19251;49.484;8.260;2022-10-16T03:22:12;19.30;35.50
32895;DHT22;19251;49.484;8.260;2022-10-16T03:27:14;19.30;35.70
32895;DHT22;19251;49.484;8.260;2022-10-16T03:32:16;19.30;35.70
32895;DHT22;19251;49.484;8.260;2022-10-16T03:37:18;19.20;35.50
32895;DHT22;19251;49.484;8.260;2022-10-16T03:42:20;19.20;35.50
32895;DHT22;19251;49.484;8.260;2022-10-16T03:47:23;19.30;35.60
32895;DHT22;19251;49.484;8.260;2022-10-16T03:52:26;19.10;35.40
32895;DHT22;19251;49.484;8.260;2022-10-16T03:57:28;19.00;35.30
32895;DHT22;19251;49.484;8.260;2022-10-16T04:02:31;19.10;35.50
32895;DHT22;19251;49.484;8.260;2022-10-16T04:12:35;18.90;35.20
32895;DHT22;19251;49.484;8.260;2022-10-16T04:17:38;19.10;35.50
32895;DHT22;19251;49.484;8.260;2022-10-16T04:22:41;19.00;35.30
32895;DHT22;19251;49.484;8.260;2022-10-16T04:27:43;19.00;35.30
32895;DHT22;19251;49.484;8.260;2022-10-16T04:32:51;19.00;35.30
32895;DHT22;19251;49.484;8.260;2022-10-16T04:37:53;18.70;35.20
32895;DHT22;19251;49.484;8.260;2022-10-16T04:42:55;19.20;35.70
32895;DHT22;19251;49.484;8.260;2022-10-16T04:47:58;18.90;35.60
32895;DHT22;19251;49.484;8.260;2022-10-16T04:53:01;19.00;35.60
32895;DHT22;19251;49.484;8.260;2022-10-16T04:58:03;18.90;36.30
32895;DHT22;19251;49.484;8.260;2022-10-16T05:03:05;18.80;35.50
32895;DHT22;19251;49.484;8.260;2022-10-16T05:08:11;18.80;35.50
32895;DHT22;19251;49.484;8.260;2022-10-16T05:13:13;18.80;35.50
32895;DHT22;19251;49.484;8.260;2022-10-16T05:18:16;18.80;35.60
32895;DHT22;19251;49.484;8.260;2022-10-16T05:23:18;18.80;35.80
32895;DHT22;19251;49.484;8.260;2022-10-16T05:28:21;18.80;36.10
32895;DHT22;19251;49.484;8.260;2022-10-16T05:33:25;18.80;36.10
32895;DHT22;19251;49.484;8.260;2022-10-16T05:38:27;18.80;36.00
32895;DHT22;19251;49.484;8.260;2022-10-16T05:43:29;18.80;36.00
32895;DHT22;19251;49.484;8.260;2022-10-16T05:48:32;18.80;35.90
32895;DHT22;19251;49.484;8.260;2022-10-16T05:53:36;18.80;36.00
32895;DHT22;19251;49.484;8.260;2022-10-16T05:58:39;19.00;36.20
32895;DHT22;19251;49.484;8.260;2022-10-16T06:08:49;18.90;36.10
32895;DHT22;19251;49.484;8.260;2022-10-16T06:13:52;18.80;36.10
32895;DHT22;19251;49.484;8.260;2022-10-16T06:18:55;18.90;36.10
32895;DHT22;19251;49.484;8.260;2022-10-16T06:23:57;19.10;36.30
32895;DHT22;19251;49.484;8.260;2022-10-16T06:29:00;18.90;36.00
32895;DHT22;19251;49.484;8.260;2022-10-16T06:34:02;18.90;36.10
32895;DHT22;19251;49.484;8.260;2022-10-16T06:39:06;18.80;36.10
32895;DHT22;19251;49.484;8.260;2022-10-16T06:49:11;18.80;36.30
32895;DHT22;19251;49.484;8.260;2022-10-16T06:54:15;18.90;36.40
32895;DHT22;19251;49.484;8.260;2022-10-16T06:59:18;18.90;36.50
32895;DHT22;19251;49.484;8.260;2022-10-16T07:04:20;18.90;36.50
32895;DHT22;19251;49.484;8.260;2022-10-16T07:09:22;18.90;37.40
32895;DHT22;19251;49.484;8.260;2022-10-16T07:14:24;19.00;36.80
32895;DHT22;19251;49.484;8.260;2022-10-16T07:19:27;19.10;36.90
32895;DHT22;19251;49.484;8.260;2022-10-16T07:24:34;19.30;37.10
32895;DHT22;19251;49.484;8.260;2022-10-16T07:29:36;19.20;36.90
32895;DHT22;19251;49.484;8.260;2022-10-16T07:34:39;19.30;36.90
32895;DHT22;19251;49.484;8.260;2022-10-16T07:39:41;19.40;37.00
32895;DHT22;19251;49.484;8.260;2022-10-16T07:44:43;19.40;36.80
32895;DHT22;19251;49.484;8.260;2022-10-16T07:49:45;19.50;36.90
32895;DHT22;19251;49.484;8.260;2022-10-16T07:54:47;19.60;37.00
32895;DHT22;19251;49.484;8.260;2022-10-16T07:59:49;19.60;36.80
32895;DHT22;19251;49.484;8.260;2022-10-16T08:04:51;19.70;36.70
32895;DHT22;19251;49.484;8.260;2022-10-16T08:09:54;19.70;36.60
32895;DHT22;19251;49.484;8.260;2022-10-16T08:14:58;19.80;36.70
32895;DHT22;19251;49.484;8.260;2022-10-16T08:20:00;19.70;36.50
32895;DHT22;19251;49.484;8.260;2022-10-16T08:25:03;19.80;36.50
32895;DHT22;19251;49.484;8.260;2022-10-16T08:30:06;19.70;36.50
32895;DHT22;19251;49.484;8.260;2022-10-16T08:35:10;19.70;36.50
32895;DHT22;19251;49.484;8.260;2022-10-16T08:40:26;19.60;36.40
32895;DHT22;19251;49.484;8.260;2022-10-16T08:45:41;19.60;36.60
32895;DHT22;19251;49.484;8.260;2022-10-16T08:50:48;19.90;37.40
32895;DHT22;19251;49.484;8.260;2022-10-16T08:55:52;19.70;37.50
32895;DHT22;19251;49.484;8.260;2022-10-16T09:01:01;20.00;38.30
32895;DHT22;19251;49.484;8.260;2022-10-16T09:11:53;20.60;38.40
32895;DHT22;19251;49.484;8.260;2022-10-16T09:17:03;20.80;38.30
32895;DHT22;19251;49.484;8.260;2022-10-16T09:22:16;21.00;38.20
32895;DHT22;19251;49.484;8.260;2022-10-16T09:27:18;21.10;38.70
32895;DHT22;19251;49.484;8.260;2022-10-16T09:32:21;21.50;37.60
32895;DHT22;19251;49.484;8.260;2022-10-16T09:37:24;21.60;37.00
32895;DHT22;19251;49.484;8.260;2022-10-16T09:42:32;21.50;35.80
32895;DHT22;19251;49.484;8.260;2022-10-16T09:47:39;21.80;35.70
32895;DHT22;19251;49.484;8.260;2022-10-16T09:52:41;21.80;35.70
32895;DHT22;19251;49.484;8.260;2022-10-16T10:01:13;22.00;35.90
32895;DHT22;19251;49.484;8.260;2022-10-16T10:06:23;22.10;36.10
32895;DHT22;19251;49.484;8.260;2022-10-16T10:17:01;22.70;36.30
32895;DHT22;19251;49.484;8.260;2022-10-16T10:22:21;22.80;35.50
32895;DHT22;19251;49.484;8.260;2022-10-16T10:38:41;22.80;33.40
32895;DHT22;19251;49.484;8.260;2022-10-16T10:44:11;22.80;34.10
32895;DHT22;19251;49.484;8.260;2022-10-16T10:54:38;22.90;34.00
32895;DHT22;19251;49.484;8.260;2022-10-16T11:10:27;23.40;34.00
32895;DHT22;19251;49.484;8.260;2022-10-16T11:15:33;23.60;33.70
32895;DHT22;19251;49.484;8.260;2022-10-16T11:25:45;24.20;33.10
32895;DHT22;19251;49.484;8.260;2022-10-16T11:30:57;24.50;33.10
32895;DHT22;19251;49.484;8.260;2022-10-16T11:36:11;25.10;32.70
32895;DHT22;19251;49.484;8.260;2022-10-16T11:41:39;25.30;32.10
32895;DHT22;19251;49.484;8.260;2022-10-16T11:46:59;25.70;31.10
32895;DHT22;19251;49.484;8.260;2022-10-16T11:52:31;26.00;29.70
32895;DHT22;19251;49.484;8.260;2022-10-16T11:57:44;26.10;29.60
32895;DHT22;19251;49.484;8.260;2022-10-16T12:08:15;26.30;27.80
32895;DHT22;19251;49.484;8.260;2022-10-16T12:13:36;26.40;28.40
32895;DHT22;19251;49.484;8.260;2022-10-16T12:18:46;26.30;27.90
32895;DHT22;19251;49.484;8.260;2022-10-16T12:23:56;26.20;28.10
32895;DHT22;19251;49.484;8.260;2022-10-16T12:29:33;26.10;28.00
32895;DHT22;19251;49.484;8.260;2022-10-16T12:34:42;25.90;28.20
32895;DHT22;19251;49.484;8.260;2022-10-16T12:39:45;25.90;28.20
32895;DHT22;19251;49.484;8.260;2022-10-16T12:44:48;26.00;28.90
32895;DHT22;19251;49.484;8.260;2022-10-16T12:49:53;26.00;28.60
32895;DHT22;19251;49.484;8.260;2022-10-16T12:54:56;26.10;27.90
32895;DHT22;19251;49.484;8.260;2022-10-16T13:00:09;26.00;27.70
32895;DHT22;19251;49.484;8.260;2022-10-16T13:05:35;25.80;26.70
32895;DHT22;19251;49.484;8.260;2022-10-16T13:11:05;25.60;27.00
32895;DHT22;19251;49.484;8.260;2022-10-16T13:21:50;25.40;27.40
32895;DHT22;19251;49.484;8.260;2022-10-16T13:27:08;25.10;27.50
32895;DHT22;19251;49.484;8.260;2022-10-16T13:32:15;24.90;27.90
32895;DHT22;19251;49.484;8.260;2022-10-16T13:37:20;24.90;27.90
32895;DHT22;19251;49.484;8.260;2022-10-16T13:42:26;24.80;28.10
32895;DHT22;19251;49.484;8.260;2022-10-16T13:47:29;24.80;28.20
32895;DHT22;19251;49.484;8.260;2022-10-16T13:52:32;24.70;28.30
32895;DHT22;19251;49.484;8.260;2022-10-16T13:57:34;24.60;28.40
32895;DHT22;19251;49.484;8.260;2022-10-16T14:02:39;24.50;29.10
32895;DHT22;19251;49.484;8.260;2022-10-16T14:07:42;24.40;29.00
32895;DHT22;19251;49.484;8.260;2022-10-16T14:12:44;24.30;29.40
32895;DHT22;19251;49.484;8.260;2022-10-16T14:17:50;24.10;29.60
32895;DHT22;19251;49.484;8.260;2022-10-16T14:23:28;24.10;30.10
32895;DHT22;19251;49.484;8.260;2022-10-16T14:28:31;24.10;30.70
32895;DHT22;19251;49.484;8.260;2022-10-16T14:33:34;24.10;30.20
32895;DHT22;19251;49.484;8.260;2022-10-16T14:38:38;24.00;30.10
32895;DHT22;19251;49.484;8.260;2022-10-16T14:43:42;24.00;30.10
32895;DHT22;19251;49.484;8.260;2022-10-16T14:48:51;24.00;30.20
32895;DHT22;19251;49.484;8.260;2022-10-16T14:53:55;24.10;30.20
32895;DHT22;19251;49.484;8.260;2022-10-16T14:59:02;24.20;30.40
32895;DHT22;19251;49.484;8.260;2022-10-16T15:04:04;24.30;30.40
32895;DHT22;19251;49.484;8.260;2022-10-16T15:09:07;24.30;30.20
32895;DHT22;19251;49.484;8.260;2022-10-16T15:14:12;24.60;30.00
32895;DHT22;19251;49.484;8.260;2022-10-16T15:19:20;24.70;29.40
32895;DHT22;19251;49.484;8.260;2022-10-16T15:24:22;24.70;29.80
32895;DHT22;19251;49.484;8.260;2022-10-16T15:29:24;24.80;29.00
32895;DHT22;19251;49.484;8.260;2022-10-16T15:34:26;24.70;28.40
32895;DHT22;19251;49.484;8.260;2022-10-16T15:39:29;24.70;28.50
32895;DHT22;19251;49.484;8.260;2022-10-16T15:44:31;24.70;28.30
32895;DHT22;19251;49.484;8.260;2022-10-16T15:49:33;24.70;28.30
32895;DHT22;19251;49.484;8.260;2022-10-16T15:54:35;24.50;28.10
32895;DHT22;19251;49.484;8.260;2022-10-16T15:59:37;24.40;27.90
32895;DHT22;19251;49.484;8.260;2022-10-16T16:04:39;24.30;27.90
32895;DHT22;19251;49.484;8.260;2022-10-16T16:09:46;24.00;27.90
32895;DHT22;19251;49.484;8.260;2022-10-16T16:14:48;23.90;27.90
32895;DHT22;19251;49.484;8.260;2022-10-16T16:19:51;23.50;28.00
32895;DHT22;19251;49.484;8.260;2022-10-16T16:24:53;23.30;28.20
32895;DHT22;19251;49.484;8.260;2022-10-16T16:29:56;23.00;28.50
32895;DHT22;19251;49.484;8.260;2022-10-16T16:34:58;22.80;28.40
32895;DHT22;19251;49.484;8.260;2022-10-16T16:40:00;22.80;28.70
32895;DHT22;19251;49.484;8.260;2022-10-16T16:45:02;22.50;28.80
32895;DHT22;19251;49.484;8.260;2022-10-16T16:50:04;22.30;29.00
32895;DHT22;19251;49.484;8.260;2022-10-16T16:55:08;22.40;29.10
32895;DHT22;19251;49.484;8.260;2022-10-16T17:00:11;22.00;29.10
32895;DHT22;19251;49.484;8.260;2022-10-16T17:05:13;21.80;29.10
32895;DHT22;19251;49.484;8.260;2022-10-16T17:10:15;21.60;29.40
32895;DHT22;19251;49.484;8.260;2022-10-16T17:15:17;21.40;29.50
32895;DHT22;19251;49.484;8.260;2022-10-16T17:25:22;21.10;29.50
32895;DHT22;19251;49.484;8.260;2022-10-16T17:30:26;21.00;29.50
32895;DHT22;19251;49.484;8.260;2022-10-16T17:35:28;20.80;29.50
32895;DHT22;19251;49.484;8.260;2022-10-16T17:40:31;20.70;29.60
32895;DHT22;19251;49.484;8.260;2022-10-16T17:45:36;20.50;29.70
32895;DHT22;19251;49.484;8.260;2022-10-16T17:50:41;20.50;29.60
32895;DHT22;19251;49.484;8.260;2022-10-16T17:55:43;20.30;29.90
32895;DHT22;19251;49.484;8.260;2022-10-16T18:05:48;20.10;30.00
32895;DHT22;19251;49.484;8.260;2022-10-16T18:10:50;20.00;30.20
32895;DHT22;19251;49.484;8.260;2022-10-16T18:16:19;19.80;30.30
32895;DHT22;19251;49.484;8.260;2022-10-16T18:21:22;19.70;30.10
32895;DHT22;19251;49.484;8.260;2022-10-16T18:26:25;19.60;30.40
32895;DHT22;19251;49.484;8.260;2022-10-16T18:31:27;19.60;30.30
32895;DHT22;19251;49.484;8.260;2022-10-16T18:36:31;19.50;30.30
32895;DHT22;19251;49.484;8.260;2022-10-16T18:41:34;19.40;30.70
32895;DHT22;19251;49.484;8.260;2022-10-16T18:46:38;19.30;30.70
32895;DHT22;19251;49.484;8.260;2022-10-16T18:51:41;19.50;31.00
32895;DHT22;19251;49.484;8.260;2022-10-16T18:56:45;19.20;30.80
32895;DHT22;19251;49.484;8.260;2022-10-16T19:01:48;19.10;31.10
32895;DHT22;19251;49.484;8.260;2022-10-16T19:06:52;19.10;31.10
32895;DHT22;19251;49.484;8.260;2022-10-16T19:11:54;19.00;31.00
32895;DHT22;19251;49.484;8.260;2022-10-16T19:16:58;18.90;31.00
32895;DHT22;19251;49.484;8.260;2022-10-16T19:22:00;18.90;31.80
32895;DHT22;19251;49.484;8.260;2022-10-16T19:27:12;18.80;31.30
32895;DHT22;19251;49.484;8.260;2022-10-16T19:32:14;18.80;31.30
32895;DHT22;19251;49.484;8.260;2022-10-16T19:37:17;18.70;31.10
32895;DHT22;19251;49.484;8.260;2022-10-16T19:42:19;18.70;31.40
32895;DHT22;19251;49.484;8.260;2022-10-16T19:47:21;18.70;32.20
32895;DHT22;19251;49.484;8.260;2022-10-16T19:52:24;18.60;31.20
32895;DHT22;19251;49.484;8.260;2022-10-16T19:57:27;18.40;31.10
32895;DHT22;19251;49.484;8.260;2022-10-16T20:02:29;18.30;31.00
32895;DHT22;19251;49.484;8.260;2022-10-16T20:07:31;18.30;31.20
32895;DHT22;19251;49.484;8.260;2022-10-16T20:12:36;18.20;31.40
32895;DHT22;19251;49.484;8.260;2022-10-16T20:17:38;18.10;31.30
32895;DHT22;19251;49.484;8.260;2022-10-16T20:22:40;18.10;31.50
32895;DHT22;19251;49.484;8.260;2022-10-16T20:27:42;18.00;32.20
32895;DHT22;19251;49.484;8.260;2022-10-16T20:32:44;18.00;31.60
32895;DHT22;19251;49.484;8.260;2022-10-16T20:37:47;17.90;31.70
32895;DHT22;19251;49.484;8.260;2022-10-16T20:42:49;17.90;31.80
32895;DHT22;19251;49.484;8.260;2022-10-16T20:47:52;17.80;31.70
32895;DHT22;19251;49.484;8.260;2022-10-16T20:52:54;17.80;31.70
32895;DHT22;19251;49.484;8.260;2022-10-16T20:57:56;17.70;31.60
32895;DHT22;19251;49.484;8.260;2022-10-16T21:08:01;17.50;31.40
32895;DHT22;19251;49.484;8.260;2022-10-16T21:13:03;17.60;31.80
32895;DHT22;19251;49.484;8.260;2022-10-16T21:18:05;17.60;31.90
32895;DHT22;19251;49.484;8.260;2022-10-16T21:23:07;17.50;31.70
32895;DHT22;19251;49.484;8.260;2022-10-16T21:28:09;17.50;31.80
32895;DHT22;19251;49.484;8.260;2022-10-16T21:38:14;17.40;31.80
32895;DHT22;19251;49.484;8.260;2022-10-16T21:43:16;17.30;31.70
32895;DHT22;19251;49.484;8.260;2022-10-16T21:48:18;17.30;32.50
32895;DHT22;19251;49.484;8.260;2022-10-16T21:53:20;17.30;31.90
32895;DHT22;19251;49.484;8.260;2022-10-16T21:58:22;17.30;31.50
32895;DHT22;19251;49.484;8.260;2022-10-16T22:03:24;17.00;31.00
32895;DHT22;19251;49.484;8.260;2022-10-16T22:08:26;16.80;30.70
32895;DHT22;19251;49.484;8.260;2022-10-16T22:13:29;17.10;31.00
32895;DHT22;19251;49.484;8.260;2022-10-16T22:18:32;16.80;31.90
32895;DHT22;19251;49.484;8.260;2022-10-16T22:23:35;16.90;31.50
32895;DHT22;19251;49.484;8.260;2022-10-16T22:28:38;16.60;31.40
32895;DHT22;19251;49.484;8.260;2022-10-16T22:33:41;16.60;31.40
32895;DHT22;19251;49.484;8.260;2022-10-16T22:38:43;16.50;31.60
32895;DHT22;19251;49.484;8.260;2022-10-16T22:43:47;16.50;32.40
32895;DHT22;19251;49.484;8.260;2022-10-16T22:48:49;16.40;31.80
32895;DHT22;19251;49.484;8.260;2022-10-16T22:53:52;16.30;31.90
32895;DHT22;19251;49.484;8.260;2022-10-16T22:58:54;16.40;32.90
32895;DHT22;19251;49.484;8.260;2022-10-16T23:03:57;16.40;32.90
32895;DHT22;19251;49.484;8.260;2022-10-16T23:09:00;16.40;33.00
32895;DHT22;19251;49.484;8.260;2022-10-16T23:14:02;16.40;32.70
32895;DHT22;19251;49.484;8.260;2022-10-16T23:19:04;16.40;32.70
32895;DHT22;19251;49.484;8.260;2022-10-16T23:24:07;16.70;33.50
32895;DHT22;19251;49.484;8.260;2022-10-16T23:29:09;16.50;33.90
32895;DHT22;19251;49.484;8.260;2022-10-16T23:34:11;17.10;35.20
32895;DHT22;19251;49.484;8.260;2022-10-16T23:39:14;16.60;35.30
32895;DHT22;19251;49.484;8.260;2022-10-16T23:44:16;16.70;36.10
32895;DHT22;19251;49.484;8.260;2022-10-16T23:49:18;17.00;35.50
32895;DHT22;19251;49.484;8.260;2022-10-16T23:59:22;17.10;35.50
